Strona główna
METAR-TAF:

METAR-TAF

Lotnisko :

Athens, Ohio, Stany Zjednoczone

Szerokość geograficzna: 39-12-43N, Długość geograficzna: 082-13-45W, wysokość: 233 m

Aktualna obserwacja pogody

Raport powstał 27 minut temu, godzina 01:55 UTC
Cisza
Temperatura 17°C
Wilgotność 100%
Ciśnienie 1016 hPa
Widzialność: 16.1 km
Rozproszone chmury na wysokości 6000 ft

METAR: KUNI 240155Z AUTO 00000KT 10SM SCT060 17/17 A3001 RMK AO2 T01740170 PWINO

czas: 22:22 (02:22 UTC)


TAF: brakujący

Obserwacja i prognoza pogody dla ponad 4000 lotnisk (raport METAR i TAF).

Dostępne stacje oznaczono żółtymi i czerwonymi punktami na mapie.

Najedź kursorem aby zobaczyć nazwę stacji.

Kliknij aby zobaczyć obserwacje i prognozy pogody.

Aby zmienić mapę: kliknij na zielony przycisk z czarnym krzyżykiem, aby powiększyć; na zielony przycisk z myślnikiem, aby pomniejszyć; na zielone strzałki, aby przejść do map sąsiednich.


METAR-TAF: